sensor_id;sensor_type;location;lat;lon;timestamp;pressure;altitude;pressure_sealevel;temperature;humidity
42003;BME280;27693;50.506;30.832;2022-07-31T00:00:26;99852.22;;;21.20;59.40
42003;BME280;27693;50.506;30.832;2022-07-31T00:01:30;99852.07;;;21.22;59.79
42003;BME280;27693;50.506;30.832;2022-07-31T00:02:32;99844.28;;;21.20;59.27
42003;BME280;27693;50.506;30.832;2022-07-31T00:03:34;99849.56;;;21.20;58.94
42003;BME280;27693;50.506;30.832;2022-07-31T00:04:37;99842.45;;;21.21;59.24
42003;BME280;27693;50.506;30.832;2022-07-31T00:05:40;99841.89;;;21.17;59.19
42003;BME280;27693;50.506;30.832;2022-07-31T00:06:44;99844.39;;;21.19;59.41
42003;BME280;27693;50.506;30.832;2022-07-31T00:07:46;99837.30;;;21.19;58.89
42003;BME280;27693;50.506;30.832;2022-07-31T00:08:48;99842.59;;;21.19;58.67
42003;BME280;27693;50.506;30.832;2022-07-31T00:09:50;99836.45;;;21.19;58.55
42003;BME280;27693;50.506;30.832;2022-07-31T00:10:55;99839.66;;;21.22;60.17
42003;BME280;27693;50.506;30.832;2022-07-31T00:11:57;99823.66;;;21.14;58.71
42003;BME280;27693;50.506;30.832;2022-07-31T00:13:00;99823.66;;;21.14;58.71
42003;BME280;27693;50.506;30.832;2022-07-31T00:14:02;99832.58;;;21.23;58.72
42003;BME280;27693;50.506;30.832;2022-07-31T00:15:07;99829.79;;;21.25;59.12
42003;BME280;27693;50.506;30.832;2022-07-31T00:16:10;99827.29;;;21.23;58.47
42003;BME280;27693;50.506;30.832;2022-07-31T00:17:12;99826.73;;;21.19;58.17
42003;BME280;27693;50.506;30.832;2022-07-31T00:18:14;99824.34;;;21.16;58.48
42003;BME280;27693;50.506;30.832;2022-07-31T00:19:17;99821.27;;;21.11;58.16
42003;BME280;27693;50.506;30.832;2022-07-31T00:20:20;99825.59;;;21.12;58.42
42003;BME280;27693;50.506;30.832;2022-07-31T00:21:23;99821.13;;;21.13;59.32
42003;BME280;27693;50.506;30.832;2022-07-31T00:22:25;99823.66;;;21.14;58.23
42003;BME280;27693;50.506;30.832;2022-07-31T00:23:28;99823.66;;;21.14;58.72
42003;BME280;27693;50.506;30.832;2022-07-31T00:24:30;99817.52;;;21.14;59.87
42003;BME280;27693;50.506;30.832;2022-07-31T00:25:34;99816.41;;;21.16;58.63
42003;BME280;27693;50.506;30.832;2022-07-31T00:26:37;99818.08;;;21.17;58.23
42003;BME280;27693;50.506;30.832;2022-07-31T00:27:40;99823.37;;;21.17;58.09
42003;BME280;27693;50.506;30.832;2022-07-31T00:28:43;99826.02;;;21.17;58.49
42003;BME280;27693;50.506;30.832;2022-07-31T00:29:44;99823.66;;;21.14;58.51
42003;BME280;27693;50.506;30.832;2022-07-31T00:30:47;99828.23;;;21.12;58.33
42003;BME280;27693;50.506;30.832;2022-07-31T00:31:49;99820.56;;;21.09;59.27
42003;BME280;27693;50.506;30.832;2022-07-31T00:32:52;99815.27;;;21.09;58.42
42003;BME280;27693;50.506;30.832;2022-07-31T00:33:54;99823.92;;;21.11;58.30
42003;BME280;27693;50.506;30.832;2022-07-31T00:34:56;99823.75;;;21.03;57.87
42003;BME280;27693;50.506;30.832;2022-07-31T00:35:58;99823.90;;;21.01;58.25
42003;BME280;27693;50.506;30.832;2022-07-31T00:37:01;99816.11;;;21.00;58.82
42003;BME280;27693;50.506;30.832;2022-07-31T00:38:04;99819.72;;;20.99;58.35
42003;BME280;27693;50.506;30.832;2022-07-31T00:39:10;99819.01;;;20.97;58.94
42003;BME280;27693;50.506;30.832;2022-07-31T00:40:15;99812.33;;;20.93;59.98
42003;BME280;27693;50.506;30.832;2022-07-31T00:41:17;99819.30;;;20.94;59.17
42003;BME280;27693;50.506;30.832;2022-07-31T00:42:23;99815.66;;;20.95;59.07
42003;BME280;27693;50.506;30.832;2022-07-31T00:43:25;99816.36;;;20.97;59.67
42003;BME280;27693;50.506;30.832;2022-07-31T00:44:30;99813.47;;;21.00;58.82
42003;BME280;27693;50.506;30.832;2022-07-31T00:45:33;99806.50;;;20.99;58.24
42003;BME280;27693;50.506;30.832;2022-07-31T00:46:39;99813.30;;;20.92;58.45
42003;BME280;27693;50.506;30.832;2022-07-31T00:47:43;99804.25;;;20.94;58.36
42003;BME280;27693;50.506;30.832;2022-07-31T00:48:45;99809.39;;;20.96;58.47
42003;BME280;27693;50.506;30.832;2022-07-31T00:49:48;99808.43;;;20.97;58.58
42003;BME280;27693;50.506;30.832;2022-07-31T00:50:51;99802.16;;;20.88;58.84
42003;BME280;27693;50.506;30.832;2022-07-31T00:51:53;99800.22;;;20.90;58.79
42003;BME280;27693;50.506;30.832;2022-07-31T00:52:55;99801.58;;;20.84;58.40
42003;BME280;27693;50.506;30.832;2022-07-31T00:53:58;99801.58;;;20.84;58.86
42003;BME280;27693;50.506;30.832;2022-07-31T00:55:01;99804.48;;;20.81;58.23
42003;BME280;27693;50.506;30.832;2022-07-31T00:56:04;99801.73;;;20.83;58.91
42003;BME280;27693;50.506;30.832;2022-07-31T00:57:07;99802.55;;;20.83;58.47
42003;BME280;27693;50.506;30.832;2022-07-31T00:58:09;99806.16;;;20.82;58.63
42003;BME280;27693;50.506;30.832;2022-07-31T00:59:11;99806.16;;;20.82;58.50
42003;BME280;27693;50.506;30.832;2022-07-31T01:00:14;99806.30;;;20.81;58.58
42003;BME280;27693;50.506;30.832;2022-07-31T01:01:17;99809.66;;;20.83;58.50
42003;BME280;27693;50.506;30.832;2022-07-31T01:02:21;99805.73;;;20.77;58.75
42003;BME280;27693;50.506;30.832;2022-07-31T01:03:23;99812.49;;;20.70;58.64
42003;BME280;27693;50.506;30.832;2022-07-31T01:04:26;99811.53;;;20.71;59.12
42003;BME280;27693;50.506;30.832;2022-07-31T01:05:29;99819.03;;;20.66;58.90
42003;BME280;27693;50.506;30.832;2022-07-31T01:06:32;99813.46;;;20.69;59.84
42003;BME280;27693;50.506;30.832;2022-07-31T01:07:36;99818.45;;;20.62;59.15
42003;BME280;27693;50.506;30.832;2022-07-31T01:08:39;99810.39;;;20.64;60.03
42003;BME280;27693;50.506;30.832;2022-07-31T01:09:41;99807.88;;;20.62;60.31
42003;BME280;27693;50.506;30.832;2022-07-31T01:11:02;99800.92;;;20.61;58.95
42003;BME280;27693;50.506;30.832;2022-07-31T01:12:12;99804.67;;;20.58;59.96
42003;BME280;27693;50.506;30.832;2022-07-31T01:13:23;99799.64;;;20.55;58.90
42003;BME280;27693;50.506;30.832;2022-07-31T01:14:23;99808.39;;;20.56;59.46
42003;BME280;27693;50.506;30.832;2022-07-31T01:15:27;99807.56;;;20.55;58.96
42003;BME280;27693;50.506;30.832;2022-07-31T01:16:34;99809.24;;;20.56;59.38
42003;BME280;27693;50.506;30.832;2022-07-31T01:17:38;99810.06;;;20.57;59.49
42003;BME280;27693;50.506;30.832;2022-07-31T01:18:42;99808.39;;;20.56;60.59
42003;BME280;27693;50.506;30.832;2022-07-31T01:19:48;99805.70;;;20.46;59.09
42003;BME280;27693;50.506;30.832;2022-07-31T01:20:54;99806.70;;;20.45;59.68
42003;BME280;27693;50.506;30.832;2022-07-31T01:26:23;99806.23;;;20.40;59.46
42003;BME280;27693;50.506;30.832;2022-07-31T01:29:05;99803.59;;;20.40;60.13
42003;BME280;27693;50.506;30.832;2022-07-31T01:30:09;99799.98;;;20.41;60.03
42003;BME280;27693;50.506;30.832;2022-07-31T01:31:16;99803.48;;;20.41;60.25
42003;BME280;27693;50.506;30.832;2022-07-31T01:32:26;99794.70;;;20.41;60.14
42003;BME280;27693;50.506;30.832;2022-07-31T01:33:41;99798.06;;;20.43;60.55
42003;BME280;27693;50.506;30.832;2022-07-31T01:34:51;99795.81;;;20.38;59.39
42003;BME280;27693;50.506;30.832;2022-07-31T01:35:57;99798.98;;;20.32;60.41
42003;BME280;27693;50.506;30.832;2022-07-31T01:38:43;99799.41;;;20.37;60.10
42003;BME280;27693;50.506;30.832;2022-07-31T01:39:51;99790.48;;;20.29;59.29
42003;BME280;27693;50.506;30.832;2022-07-31T01:42:13;99784.41;;;20.38;59.77
42003;BME280;27693;50.506;30.832;2022-07-31T01:43:24;99780.16;;;20.25;60.05
42003;BME280;27693;50.506;30.832;2022-07-31T01:44:28;99783.33;;;20.19;60.70
42003;BME280;27693;50.506;30.832;2022-07-31T01:45:32;99786.69;;;20.21;60.46
42003;BME280;27693;50.506;30.832;2022-07-31T01:46:35;99784.05;;;20.21;60.73
42003;BME280;27693;50.506;30.832;2022-07-31T01:47:42;99785.39;;;20.16;59.90
42003;BME280;27693;50.506;30.832;2022-07-31T01:48:46;99791.25;;;20.19;60.30
42003;BME280;27693;50.506;30.832;2022-07-31T01:49:52;99794.86;;;20.18;59.67
42003;BME280;27693;50.506;30.832;2022-07-31T01:50:57;99783.99;;;20.11;59.96
42003;BME280;27693;50.506;30.832;2022-07-31T01:52:02;99786.39;;;20.15;61.17
42003;BME280;27693;50.506;30.832;2022-07-31T01:53:07;99789.72;;;20.17;60.20
42003;BME280;27693;50.506;30.832;2022-07-31T01:54:13;99787.46;;;20.12;59.77
42003;BME280;27693;50.506;30.832;2022-07-31T01:55:17;99786.64;;;20.11;60.18
42003;BME280;27693;50.506;30.832;2022-07-31T01:56:21;99783.28;;;20.09;60.84
42003;BME280;27693;50.506;30.832;2022-07-31T01:57:25;99780.06;;;20.06;60.07
42003;BME280;27693;50.506;30.832;2022-07-31T01:58:32;99783.66;;;20.05;60.27
42003;BME280;27693;50.506;30.832;2022-07-31T01:59:38;99774.48;;;19.99;60.91
42003;BME280;27693;50.506;30.832;2022-07-31T02:00:47;99780.58;;;20.00;60.75
42003;BME280;27693;50.506;30.832;2022-07-31T02:01:51;99777.94;;;20.00;60.70
42003;BME280;27693;50.506;30.832;2022-07-31T02:02:55;99779.76;;;19.99;61.43
42003;BME280;27693;50.506;30.832;2022-07-31T02:04:00;99773.37;;;20.02;61.00
42003;BME280;27693;50.506;30.832;2022-07-31T02:05:06;99772.52;;;20.01;61.23
42003;BME280;27693;50.506;30.832;2022-07-31T02:06:12;99767.00;;;20.04;60.99
42003;BME280;27693;50.506;30.832;2022-07-31T02:07:17;99773.52;;;20.00;60.53
42003;BME280;27693;50.506;30.832;2022-07-31T02:08:20;99769.50;;;20.06;60.93
42003;BME280;27693;50.506;30.832;2022-07-31T02:09:26;99774.67;;;20.07;60.56
42003;BME280;27693;50.506;30.832;2022-07-31T02:10:30;99772.85;;;20.08;60.73
42003;BME280;27693;50.506;30.832;2022-07-31T02:11:34;99773.81;;;20.07;61.15
42003;BME280;27693;50.506;30.832;2022-07-31T02:12:39;99775.05;;;20.03;61.20
42003;BME280;27693;50.506;30.832;2022-07-31T02:13:48;99773.09;;;20.05;61.26
42003;BME280;27693;50.506;30.832;2022-07-31T02:14:49;99775.73;;;20.05;59.84
42003;BME280;27693;50.506;30.832;2022-07-31T02:15:55;99779.18;;;19.95;59.51
42003;BME280;27693;50.506;30.832;2022-07-31T02:16:58;99773.56;;;19.89;61.00
42003;BME280;27693;50.506;30.832;2022-07-31T02:18:03;99778.73;;;19.90;60.34
42003;BME280;27693;50.506;30.832;2022-07-31T02:19:08;99782.78;;;19.94;60.64
42003;BME280;27693;50.506;30.832;2022-07-31T02:20:15;99781.10;;;19.93;60.46
42003;BME280;27693;50.506;30.832;2022-07-31T02:21:18;99777.22;;;19.98;60.56
42003;BME280;27693;50.506;30.832;2022-07-31T02:22:20;99777.22;;;19.98;60.56
42003;BME280;27693;50.506;30.832;2022-07-31T02:23:24;99779.18;;;19.95;59.94
42003;BME280;27693;50.506;30.832;2022-07-31T02:24:28;99772.94;;;19.97;60.16
42003;BME280;27693;50.506;30.832;2022-07-31T02:25:33;99779.18;;;19.95;60.52
42003;BME280;27693;50.506;30.832;2022-07-31T02:26:38;99781.10;;;19.93;60.00
42003;BME280;27693;50.506;30.832;2022-07-31T02:27:42;99781.10;;;19.93;60.00
42003;BME280;27693;50.506;30.832;2022-07-31T02:28:48;99779.42;;;19.92;60.41
42003;BME280;27693;50.506;30.832;2022-07-31T02:29:54;99778.73;;;19.90;59.82
42003;BME280;27693;50.506;30.832;2022-07-31T02:30:59;99774.66;;;19.86;60.14
42003;BME280;27693;50.506;30.832;2022-07-31T02:32:06;99782.34;;;19.89;60.34
42003;BME280;27693;50.506;30.832;2022-07-31T02:33:21;99788.83;;;19.85;60.02
42003;BME280;27693;50.506;30.832;2022-07-31T02:34:26;99786.66;;;19.90;60.28
42003;BME280;27693;50.506;30.832;2022-07-31T02:35:32;99788.83;;;19.85;60.38
42003;BME280;27693;50.506;30.832;2022-07-31T02:36:36;99789.06;;;19.82;60.44
42003;BME280;27693;50.506;30.832;2022-07-31T02:37:41;99791.95;;;19.79;60.55
42003;BME280;27693;50.506;30.832;2022-07-31T02:38:45;99787.45;;;19.70;60.20
42003;BME280;27693;50.506;30.832;2022-07-31T02:39:52;99792.22;;;19.76;61.80
42003;BME280;27693;50.506;30.832;2022-07-31T02:40:58;99794.34;;;19.82;60.40
42003;BME280;27693;50.506;30.832;2022-07-31T02:42:03;99796.03;;;19.83;60.55
42003;BME280;27693;50.506;30.832;2022-07-31T02:43:07;99790.41;;;19.76;60.55
42003;BME280;27693;50.506;30.832;2022-07-31T02:44:12;99790.41;;;19.76;60.55
42003;BME280;27693;50.506;30.832;2022-07-31T02:45:17;99796.27;;;19.80;60.49
42003;BME280;27693;50.506;30.832;2022-07-31T02:46:21;99800.14;;;19.76;60.84
42003;BME280;27693;50.506;30.832;2022-07-31T02:47:24;99800.59;;;19.81;60.94
42003;BME280;27693;50.506;30.832;2022-07-31T02:48:28;99800.59;;;19.81;60.26
42003;BME280;27693;50.506;30.832;2022-07-31T02:49:33;99792.91;;;19.78;60.98
42003;BME280;27693;50.506;30.832;2022-07-31T02:50:39;99798.46;;;19.75;60.65
42003;BME280;27693;50.506;30.832;2022-07-31T02:51:42;99794.86;;;19.76;61.12
42003;BME280;27693;50.506;30.832;2022-07-31T02:52:45;99796.54;;;19.77;61.76
42003;BME280;27693;50.506;30.832;2022-07-31T02:53:49;99794.01;;;19.75;60.78
42003;BME280;27693;50.506;30.832;2022-07-31T02:54:53;99791.50;;;19.74;60.95
42003;BME280;27693;50.506;30.832;2022-07-31T02:55:58;99790.41;;;19.76;60.92
42003;BME280;27693;50.506;30.832;2022-07-31T02:57:02;99797.70;;;19.84;61.12
42003;BME280;27693;50.506;30.832;2022-07-31T02:58:05;99799.39;;;19.85;60.67
42003;BME280;27693;50.506;30.832;2022-07-31T02:59:10;99798.56;;;19.85;60.79
42003;BME280;27693;50.506;30.832;2022-07-31T03:00:22;99796.88;;;19.84;61.15
42003;BME280;27693;50.506;30.832;2022-07-31T03:01:26;99800.59;;;19.81;60.60
42003;BME280;27693;50.506;30.832;2022-07-31T03:02:30;99800.72;;;19.79;60.55
42003;BME280;27693;50.506;30.832;2022-07-31T03:03:35;99805.42;;;19.76;60.88
42003;BME280;27693;50.506;30.832;2022-07-31T03:04:37;99796.54;;;19.77;61.19
42003;BME280;27693;50.506;30.832;2022-07-31T03:05:39;99793.18;;;19.75;60.85
42003;BME280;27693;50.506;30.832;2022-07-31T03:06:42;99796.54;;;19.77;60.76
42003;BME280;27693;50.506;30.832;2022-07-31T03:07:44;99799.87;;;19.79;61.44
42003;BME280;27693;50.506;30.832;2022-07-31T03:08:47;99810.56;;;19.77;60.81
42003;BME280;27693;50.506;30.832;2022-07-31T03:09:51;99802.78;;;19.76;61.06
42003;BME280;27693;50.506;30.832;2022-07-31T03:11:00;99798.46;;;19.75;60.32
42003;BME280;27693;50.506;30.832;2022-07-31T03:12:04;99802.20;;;19.72;61.00
42003;BME280;27693;50.506;30.832;2022-07-31T03:13:08;99802.88;;;19.74;61.08
42003;BME280;27693;50.506;30.832;2022-07-31T03:14:14;99795.55;;;19.78;60.70
42003;BME280;27693;50.506;30.832;2022-07-31T03:15:19;99808.06;;;19.76;60.07
42003;BME280;27693;50.506;30.832;2022-07-31T03:16:25;99801.82;;;19.77;60.53
42003;BME280;27693;50.506;30.832;2022-07-31T03:17:27;99806.52;;;19.73;60.44
42003;BME280;27693;50.506;30.832;2022-07-31T03:18:34;99801.92;;;19.75;60.80
42003;BME280;27693;50.506;30.832;2022-07-31T03:19:36;99810.70;;;19.76;60.72
42003;BME280;27693;50.506;30.832;2022-07-31T03:20:42;99810.70;;;19.76;60.82
42003;BME280;27693;50.506;30.832;2022-07-31T03:21:44;99809.98;;;19.74;60.34
42003;BME280;27693;50.506;30.832;2022-07-31T03:22:48;99815.02;;;19.77;61.13
42003;BME280;27693;50.506;30.832;2022-07-31T03:23:54;99819.06;;;19.81;61.13
42003;BME280;27693;50.506;30.832;2022-07-31T03:24:57;99813.20;;;19.77;60.29
42003;BME280;27693;50.506;30.832;2022-07-31T03:26:01;99809.02;;;19.75;59.88
42003;BME280;27693;50.506;30.832;2022-07-31T03:27:06;99809.02;;;19.75;60.23
42003;BME280;27693;50.506;30.832;2022-07-31T03:28:09;99813.44;;;19.74;60.78
42003;BME280;27693;50.506;30.832;2022-07-31T03:29:12;99811.08;;;19.71;60.66
42003;BME280;27693;50.506;30.832;2022-07-31T03:30:17;99808.75;;;19.78;60.93
42003;BME280;27693;50.506;30.832;2022-07-31T03:31:20;99810.42;;;19.79;60.01
42003;BME280;27693;50.506;30.832;2022-07-31T03:32:22;99808.50;;;19.81;60.21
42003;BME280;27693;50.506;30.832;2022-07-31T03:33:25;99805.87;;;19.81;60.93
42003;BME280;27693;50.506;30.832;2022-07-31T03:34:27;99811.76;;;19.85;60.76
42003;BME280;27693;50.506;30.832;2022-07-31T03:35:29;99806.83;;;19.80;60.05
42003;BME280;27693;50.506;30.832;2022-07-31T03:36:32;99807.30;;;19.85;60.56
42003;BME280;27693;50.506;30.832;2022-07-31T03:37:35;99802.37;;;19.80;60.74
42003;BME280;27693;50.506;30.832;2022-07-31T03:38:37;99801.55;;;19.80;60.29
42003;BME280;27693;50.506;30.832;2022-07-31T03:39:43;99804.66;;;19.85;60.13
42003;BME280;27693;50.506;30.832;2022-07-31T03:40:47;99809.70;;;19.88;60.05
42003;BME280;27693;50.506;30.832;2022-07-31T03:41:50;99797.91;;;19.92;60.21
42003;BME280;27693;50.506;30.832;2022-07-31T03:42:55;99802.09;;;19.95;59.81
42003;BME280;27693;50.506;30.832;2022-07-31T03:43:57;99789.74;;;19.95;60.02
42003;BME280;27693;50.506;30.832;2022-07-31T03:45:02;99806.10;;;19.89;59.64
42003;BME280;27693;50.506;30.832;2022-07-31T03:46:05;99802.23;;;19.93;59.87
42003;BME280;27693;50.506;30.832;2022-07-31T03:47:09;99806.69;;;19.93;60.32
42003;BME280;27693;50.506;30.832;2022-07-31T03:48:11;99790.42;;;19.98;59.84
42003;BME280;27693;50.506;30.832;2022-07-31T03:49:14;99800.03;;;19.99;59.32
42003;BME280;27693;50.506;30.832;2022-07-31T03:50:18;99791.14;;;20.00;59.83
42003;BME280;27693;50.506;30.832;2022-07-31T03:51:21;99794.64;;;20.00;59.71
42003;BME280;27693;50.506;30.832;2022-07-31T03:52:24;99790.18;;;20.01;60.43
42003;BME280;27693;50.506;30.832;2022-07-31T03:53:27;99793.78;;;20.00;60.24
42003;BME280;27693;50.506;30.832;2022-07-31T03:54:30;99791.72;;;20.03;59.30
42003;BME280;27693;50.506;30.832;2022-07-31T03:55:37;99802.56;;;20.00;59.50
42003;BME280;27693;50.506;30.832;2022-07-31T03:56:42;99793.41;;;20.04;59.19
42003;BME280;27693;50.506;30.832;2022-07-31T03:57:48;99799.50;;;20.05;59.10
42003;BME280;27693;50.506;30.832;2022-07-31T03:58:51;99803.14;;;20.04;59.43
42003;BME280;27693;50.506;30.832;2022-07-31T03:59:55;99792.58;;;20.04;59.81
42003;BME280;27693;50.506;30.832;2022-07-31T04:00:59;99801.19;;;20.06;59.47
42003;BME280;27693;50.506;30.832;2022-07-31T04:02:04;99797.97;;;20.02;59.48
42003;BME280;27693;50.506;30.832;2022-07-31T04:03:16;99791.72;;;20.03;59.40
42003;BME280;27693;50.506;30.832;2022-07-31T04:04:25;99793.27;;;20.06;59.98
42003;BME280;27693;50.506;30.832;2022-07-31T04:05:33;99796.38;;;20.11;59.44
42003;BME280;27693;50.506;30.832;2022-07-31T04:06:37;99795.27;;;20.14;59.31
42003;BME280;27693;50.506;30.832;2022-07-31T04:07:39;99794.31;;;20.15;59.24
42003;BME280;27693;50.506;30.832;2022-07-31T04:08:41;99785.81;;;20.11;59.75
42003;BME280;27693;50.506;30.832;2022-07-31T04:09:44;99789.14;;;20.13;59.41
42003;BME280;27693;50.506;30.832;2022-07-31T04:10:48;99794.17;;;20.16;59.70
42003;BME280;27693;50.506;30.832;2022-07-31T04:11:52;99793.73;;;20.11;59.30
42003;BME280;27693;50.506;30.832;2022-07-31T04:12:54;99792.05;;;20.10;59.88
42003;BME280;27693;50.506;30.832;2022-07-31T04:13:57;99799.59;;;20.15;59.45
42003;BME280;27693;50.506;30.832;2022-07-31T04:14:59;99791.53;;;20.16;59.19
42003;BME280;27693;50.506;30.832;2022-07-31T04:16:01;99787.65;;;20.20;59.54
42003;BME280;27693;50.506;30.832;2022-07-31T04:17:05;99795.85;;;20.17;60.17
42003;BME280;27693;50.506;30.832;2022-07-31T04:18:08;99790.29;;;20.20;59.52
42003;BME280;27693;50.506;30.832;2022-07-31T04:19:15;99787.65;;;20.20;59.14
42003;BME280;27693;50.506;30.832;2022-07-31T04:20:19;99795.44;;;20.22;59.42
42003;BME280;27693;50.506;30.832;2022-07-31T04:21:22;99792.80;;;20.22;58.87
42003;BME280;27693;50.506;30.832;2022-07-31T04:22:25;99787.27;;;20.25;59.81
42003;BME280;27693;50.506;30.832;2022-07-31T04:23:28;99789.77;;;20.26;59.21
42003;BME280;27693;50.506;30.832;2022-07-31T04:24:52;99785.91;;;20.31;59.25
42003;BME280;27693;50.506;30.832;2022-07-31T04:26:12;99788.80;;;20.27;59.34
42003;BME280;27693;50.506;30.832;2022-07-31T04:27:18;99784.95;;;20.32;59.53
42003;BME280;27693;50.506;30.832;2022-07-31T04:28:21;99796.20;;;20.34;58.73
42003;BME280;27693;50.506;30.832;2022-07-31T04:29:24;99791.62;;;20.36;58.57
42003;BME280;27693;50.506;30.832;2022-07-31T04:30:28;99790.52;;;20.38;59.57
42003;BME280;27693;50.506;30.832;2022-07-31T04:31:30;99795.09;;;20.36;58.51
42003;BME280;27693;50.506;30.832;2022-07-31T04:32:34;99789.17;;;20.44;58.69
42003;BME280;27693;50.506;30.832;2022-07-31T04:33:38;99781.67;;;20.49;58.80
42003;BME280;27693;50.506;30.832;2022-07-31T04:34:43;99790.31;;;20.51;58.99
42003;BME280;27693;50.506;30.832;2022-07-31T04:35:46;99795.06;;;20.57;58.09
42003;BME280;27693;50.506;30.832;2022-07-31T04:36:49;99786.70;;;20.52;59.18
42003;BME280;27693;50.506;30.832;2022-07-31T04:37:51;99786.99;;;20.59;59.00
42003;BME280;27693;50.506;30.832;2022-07-31T04:38:55;99781.52;;;20.72;57.65
42003;BME280;27693;50.506;30.832;2022-07-31T04:39:57;99781.52;;;20.72;57.65
42003;BME280;27693;50.506;30.832;2022-07-31T04:40:59;99776.23;;;20.72;58.15
42003;BME280;27693;50.506;30.832;2022-07-31T04:42:02;99780.97;;;20.78;58.21
42003;BME280;27693;50.506;30.832;2022-07-31T04:43:06;99785.41;;;20.78;57.57
42003;BME280;27693;50.506;30.832;2022-07-31T04:44:09;99788.36;;;20.84;57.77
42003;BME280;27693;50.506;30.832;2022-07-31T04:45:17;99784.86;;;20.84;58.13
42003;BME280;27693;50.506;30.832;2022-07-31T04:46:19;99780.03;;;20.89;58.07
42003;BME280;27693;50.506;30.832;2022-07-31T04:47:21;99788.53;;;20.93;57.71
42003;BME280;27693;50.506;30.832;2022-07-31T04:48:25;99791.59;;;20.98;57.37
42003;BME280;27693;50.506;30.832;2022-07-31T04:49:28;99789.66;;;21.00;57.33
42003;BME280;27693;50.506;30.832;2022-07-31T04:50:35;99790.91;;;21.05;57.54
42003;BME280;27693;50.506;30.832;2022-07-31T04:51:37;99782.14;;;21.05;56.76
42003;BME280;27693;50.506;30.832;2022-07-31T04:52:40;99774.92;;;21.07;57.00
42003;BME280;27693;50.506;30.832;2022-07-31T04:53:45;99781.86;;;21.08;56.78
42003;BME280;27693;50.506;30.832;2022-07-31T04:54:47;99782.42;;;21.12;57.14
42003;BME280;27693;50.506;30.832;2022-07-31T04:55:50;99788.27;;;21.15;57.45
42003;BME280;27693;50.506;30.832;2022-07-31T04:56:52;99781.75;;;21.19;56.87
42003;BME280;27693;50.506;30.832;2022-07-31T04:57:55;99781.05;;;21.17;57.43
42003;BME280;27693;50.506;30.832;2022-07-31T04:59:00;99778.81;;;21.22;56.92
42003;BME280;27693;50.506;30.832;2022-07-31T05:00:05;99779.78;;;21.21;57.18
42003;BME280;27693;50.506;30.832;2022-07-31T05:01:07;99777.70;;;21.25;57.02
42003;BME280;27693;50.506;30.832;2022-07-31T05:02:11;99779.94;;;21.30;56.85
42003;BME280;27693;50.506;30.832;2022-07-31T05:03:14;99780.50;;;21.33;56.75
42003;BME280;27693;50.506;30.832;2022-07-31T05:04:17;99779.37;;;21.36;56.50
42003;BME280;27693;50.506;30.832;2022-07-31T05:05:20;99778.82;;;21.42;56.58
42003;BME280;27693;50.506;30.832;2022-07-31T05:06:31;99785.52;;;21.46;56.72
42003;BME280;27693;50.506;30.832;2022-07-31T05:07:34;99780.23;;;21.46;56.29
42003;BME280;27693;50.506;30.832;2022-07-31T05:08:38;99784.67;;;21.55;56.09
42003;BME280;27693;50.506;30.832;2022-07-31T05:09:41;99783.61;;;21.58;55.78
42003;BME280;27693;50.506;30.832;2022-07-31T05:10:44;99780.97;;;21.58;55.69
42003;BME280;27693;50.506;30.832;2022-07-31T05:11:47;99780.52;;;21.63;55.47
42003;BME280;27693;50.506;30.832;2022-07-31T05:12:50;99792.92;;;21.72;55.77
42003;BME280;27693;50.506;30.832;2022-07-31T05:13:54;99786.92;;;21.70;54.60
42003;BME280;27693;50.506;30.832;2022-07-31T05:14:57;99783.86;;;21.75;54.78
42003;BME280;27693;50.506;30.832;2022-07-31T05:16:00;99779.42;;;21.75;54.21
42003;BME280;27693;50.506;30.832;2022-07-31T05:17:02;99784.41;;;21.78;54.20
42003;BME280;27693;50.506;30.832;2022-07-31T05:18:07;99786.80;;;21.81;54.50
42003;BME280;27693;50.506;30.832;2022-07-31T05:19:23;99787.47;;;21.83;54.95
42003;BME280;27693;50.506;30.832;2022-07-31T05:20:43;99786.49;;;21.84;55.10
42003;BME280;27693;50.506;30.832;2022-07-31T05:21:54;99785.83;;;21.82;54.18
42003;BME280;27693;50.506;30.832;2022-07-31T05:23:16;99785.52;;;21.85;54.91
42003;BME280;27693;50.506;30.832;2022-07-31T05:24:21;99788.88;;;21.88;54.74
42003;BME280;27693;50.506;30.832;2022-07-31T05:25:33;99780.77;;;21.89;54.62
42003;BME280;27693;50.506;30.832;2022-07-31T05:26:37;99778.28;;;21.88;54.15
42003;BME280;27693;50.506;30.832;2022-07-31T05:27:39;99782.45;;;21.90;54.77
42003;BME280;27693;50.506;30.832;2022-07-31T05:28:43;99782.88;;;21.85;54.37
42003;BME280;27693;50.506;30.832;2022-07-31T05:29:47;99782.17;;;21.83;54.34
42003;BME280;27693;50.506;30.832;2022-07-31T05:30:50;99787.59;;;21.92;55.17
42003;BME280;27693;50.506;30.832;2022-07-31T05:31:53;99781.88;;;21.96;54.62
42003;BME280;27693;50.506;30.832;2022-07-31T05:32:57;99777.41;;;21.97;54.38
42003;BME280;27693;50.506;30.832;2022-07-31T05:33:59;99783.25;;;22.00;54.74
42003;BME280;27693;50.506;30.832;2022-07-31T05:35:02;99779.36;;;22.05;54.71
42003;BME280;27693;50.506;30.832;2022-07-31T05:36:05;99781.86;;;22.06;55.37
42003;BME280;27693;50.506;30.832;2022-07-31T05:37:08;99780.18;;;22.05;54.38
42003;BME280;27693;50.506;30.832;2022-07-31T05:38:11;99780.45;;;22.12;53.91
42003;BME280;27693;50.506;30.832;2022-07-31T05:39:16;99774.85;;;22.15;53.53
42003;BME280;27693;50.506;30.832;2022-07-31T05:40:32;99776.38;;;22.17;54.36
42003;BME280;27693;50.506;30.832;2022-07-31T05:41:51;99778.36;;;22.15;53.52
42003;BME280;27693;50.506;30.832;2022-07-31T05:43:10;99770.11;;;22.18;54.48
42003;BME280;27693;50.506;30.832;2022-07-31T05:44:31;99768.16;;;22.21;53.77
42003;BME280;27693;50.506;30.832;2022-07-31T05:45:34;99775.13;;;22.22;52.78
42003;BME280;27693;50.506;30.832;2022-07-31T05:46:38;99769.25;;;22.28;53.25